Time;durP1;ratioP1;P1;durP2;ratioP2;P2;SDS_P1;SDS_P2;PMS_P1;PMS_P2;Temp;Humidity;BMP_temperature;BMP_pressure;BME280_temperature;BME280_humidity;BME280_pressure;Samples;Min_cycle;Max_cycle;Signal;HPM_P1;HPM_P2
2021/12/22 00:02:16;;;;;;;9.70;6.07;;;;;;;-3.97;69.54;96297.34;1608497;89;21670;-67
2021/12/22 00:04:45;;;;;;;10.63;6.27;;;;;;;-4.00;69.56;96303.23;1608732;89;21081;-67
2021/12/22 00:07:15;;;;;;;13.23;6.63;;;;;;;-4.03;69.73;96312.11;1608619;89;21114;-67
2021/12/22 00:09:43;;;;;;;10.00;5.70;;;;;;;-4.09;70.61;96309.63;1608411;89;21127;-67
2021/12/22 00:12:11;;;;;;;10.63;5.87;;;;;;;-4.13;70.68;96312.48;1608950;89;21042;-67
2021/12/22 00:14:37;;;;;;;14.67;6.27;;;;;;;-4.12;70.70;96315.52;1608643;89;21050;-67
2021/12/22 00:17:05;;;;;;;9.43;6.27;;;;;;;-4.12;70.97;96318.51;1608679;89;21540;-67
2021/12/22 00:19:33;;;;;;;10.83;5.97;;;;;;;-4.11;71.01;96322.84;1608878;89;21630;-67
2021/12/22 00:21:59;;;;;;;9.57;5.83;;;;;;;-4.07;71.25;96326.94;1608981;89;21092;-67
2021/12/22 00:24:26;;;;;;;13.57;6.97;;;;;;;-4.07;71.43;96325.65;1609091;89;21015;-67
2021/12/22 00:26:53;;;;;;;9.73;5.77;;;;;;;-4.05;71.44;96325.33;1609185;89;21132;-67
2021/12/22 00:29:21;;;;;;;8.33;5.33;;;;;;;-3.99;71.56;96330.77;1609179;89;21074;-67
2021/12/22 00:31:58;;;;;;;6.77;4.03;;;;;;;-4.04;71.76;96340.38;1609037;89;21062;-67
2021/12/22 00:34:17;;;;;;;9.33;5.13;;;;;;;-4.02;71.68;96337.48;1607623;89;21112;-67
2021/12/22 00:36:45;;;;;;;11.93;6.73;;;;;;;-4.08;71.40;96337.16;1608679;89;21648;-67
2021/12/22 00:39:11;;;;;;;11.70;6.20;;;;;;;-4.14;72.35;96345.07;1608905;89;21058;-67
2021/12/22 00:41:38;;;;;;;11.57;7.10;;;;;;;-4.16;72.40;96350.58;1609173;89;21015;-67
2021/12/22 00:44:05;;;;;;;12.57;7.27;;;;;;;-4.15;72.91;96351.45;1609057;89;21026;-67
2021/12/22 00:46:32;;;;;;;7.43;4.63;;;;;;;-4.14;72.87;96352.80;1608826;89;21625;-67
2021/12/22 00:48:58;;;;;;;10.77;5.87;;;;;;;-4.24;74.05;96350.58;1609164;89;21109;-67
2021/12/22 00:51:25;;;;;;;10.70;7.13;;;;;;;-4.40;75.15;96363.52;1608637;89;21098;-67
2021/12/22 00:53:52;;;;;;;11.33;7.00;;;;;;;-4.36;74.45;96369.28;1609363;88;21094;-67
2021/12/22 00:56:18;;;;;;;9.50;5.50;;;;;;;-4.40;73.98;96373.41;1608884;89;21138;-67
2021/12/22 00:58:45;;;;;;;13.50;6.63;;;;;;;-4.48;74.25;96374.71;1608988;89;21484;-67
2021/12/22 01:01:11;;;;;;;9.97;6.07;;;;;;;-4.46;74.12;96377.34;1609251;89;21039;-67
2021/12/22 01:03:38;;;;;;;9.43;6.60;;;;;;;-4.47;74.34;96376.47;1609180;89;21011;-67
2021/12/22 01:06:05;;;;;;;11.60;6.83;;;;;;;-4.45;74.17;96372.70;1608636;89;21086;-67
2021/12/22 01:08:32;;;;;;;13.03;8.07;;;;;;;-4.42;74.17;96376.70;1609048;89;21106;-67
2021/12/22 01:10:58;;;;;;;13.33;8.17;;;;;;;-4.43;73.89;96383.55;1609097;89;21047;-67
2021/12/22 01:13:25;;;;;;;13.17;6.60;;;;;;;-4.42;74.08;96381.45;1609060;89;21038;-67
2021/12/22 01:15:52;;;;;;;14.00;7.63;;;;;;;-4.38;73.97;96388.54;1608967;89;21109;-67
2021/12/22 01:18:29;;;;;;;15.67;8.50;;;;;;;-4.53;74.68;96390.33;1608742;89;21513;-67
2021/12/22 01:21:05;;;;;;;14.27;8.13;;;;;;;-4.58;75.26;96384.06;1606287;89;21114;-67
2021/12/22 01:23:37;;;;;;;12.40;7.17;;;;;;;-4.49;75.32;96382.34;1608250;89;21070;-67
2021/12/22 01:26:03;;;;;;;12.20;7.37;;;;;;;-4.47;75.81;96382.03;1608355;89;21098;-67
2021/12/22 01:28:30;;;;;;;16.30;7.57;;;;;;;-4.45;75.87;96381.30;1608754;89;21054;-67
2021/12/22 01:31:02;;;;;;;14.57;8.33;;;;;;;-4.41;76.07;96379.75;1608658;89;21539;-67
2021/12/22 01:33:25;;;;;;;16.97;9.57;;;;;;;-4.42;76.09;96380.16;1608037;89;21066;-67
2021/12/22 01:35:52;;;;;;;15.00;8.57;;;;;;;-4.35;76.03;96373.64;1608549;89;21063;-67
2021/12/22 01:38:18;;;;;;;13.47;8.10;;;;;;;-4.35;76.00;96374.52;1608617;89;21098;-67
2021/12/22 01:40:46;;;;;;;15.37;8.40;;;;;;;-4.36;76.62;96375.34;1608701;89;21083;-67
2021/12/22 01:43:16;;;;;;;14.00;7.77;;;;;;;-4.40;76.75;96368.66;1608530;89;21126;-67
2021/12/22 01:51:40;;;;;;;13.43;6.70;;;;;;;-4.25;76.53;96363.41;1608968;89;21070;-67
2021/12/22 01:54:21;;;;;;;11.30;7.63;;;;;;;-4.29;76.24;96361.05;1608555;89;21127;-67
2021/12/22 01:56:50;;;;;;;13.20;7.87;;;;;;;-4.35;76.78;96359.06;1608984;89;21030;-67
2021/12/22 01:59:17;;;;;;;15.43;7.83;;;;;;;-4.27;76.79;96362.02;1608534;89;21058;-67
2021/12/22 02:01:43;;;;;;;13.57;8.03;;;;;;;-4.20;76.58;96365.39;1608828;89;21039;-67
2021/12/22 02:04:13;;;;;;;13.47;7.80;;;;;;;-4.17;76.32;96362.96;1608722;89;21111;-67
2021/12/22 02:06:47;;;;;;;12.77;8.03;;;;;;;-4.19;76.32;96362.41;1608845;89;21067;-67
2021/12/22 02:09:25;;;;;;;18.70;8.57;;;;;;;-4.10;76.14;96372.31;1608754;89;21070;-67
2021/12/22 02:11:43;;;;;;;15.80;7.93;;;;;;;-4.08;75.60;96374.53;1607153;89;21086;-67
2021/12/22 02:14:09;;;;;;;16.63;9.30;;;;;;;-4.15;75.47;96378.52;1608742;89;21114;-67
2021/12/22 02:16:39;;;;;;;19.93;10.30;;;;;;;-4.29;76.03;96366.62;1608301;89;21564;-67
2021/12/22 02:19:09;;;;;;;12.37;8.37;;;;;;;-4.32;76.58;96376.78;1613372;88;21520;-67
2021/12/22 02:21:45;;;;;;;14.03;7.87;;;;;;;-4.36;76.04;96380.49;1608741;88;21054;-67
2021/12/22 02:24:08;;;;;;;13.57;7.70;;;;;;;-4.38;75.54;96377.36;1608367;89;21080;-67
2021/12/22 02:26:43;;;;;;;19.50;10.37;;;;;;;-4.44;75.96;96380.89;1608673;89;21221;-67
2021/12/22 02:29:17;;;;;;;17.97;8.10;;;;;;;-4.39;76.54;96380.31;1613024;89;21074;-67
2021/12/22 02:31:41;;;;;;;16.97;8.53;;;;;;;-4.39;77.14;96381.60;1606887;89;21589;-67
2021/12/22 02:34:05;;;;;;;16.70;8.87;;;;;;;-4.41;76.87;96378.47;1607628;89;21169;-67
2021/12/22 02:36:39;;;;;;;16.93;9.23;;;;;;;-4.41;77.18;96378.47;1608205;89;21074;-67
2021/12/22 02:39:01;;;;;;;16.37;9.03;;;;;;;-4.39;77.10;96375.16;1607605;89;21079;-67
2021/12/22 02:41:30;;;;;;;12.47;7.40;;;;;;;-4.37;77.10;96378.70;1608891;89;21087;-67
2021/12/22 02:43:59;;;;;;;8.77;5.20;;;;;;;-4.33;76.58;96378.85;1608552;89;21062;-67
2021/12/22 02:46:31;;;;;;;10.17;5.87;;;;;;;-4.42;75.92;96378.88;1608788;89;21114;-67
2021/12/22 02:49:05;;;;;;;9.97;5.40;;;;;;;-4.59;76.76;96379.31;1608588;89;21070;-67
2021/12/22 02:51:32;;;;;;;9.50;4.60;;;;;;;-4.55;77.45;96374.32;1607821;89;21070;-67
2021/12/22 02:54:13;;;;;;;7.50;4.00;;;;;;;-4.50;77.49;96369.00;1608858;89;21063;-67
2021/12/22 03:02:09;;;;;;;4.37;2.87;;;;;;;-4.49;77.42;96383.23;1608816;89;21086;-67
2021/12/22 03:04:27;;;;;;;4.20;2.80;;;;;;;-4.47;77.16;96380.74;1605311;89;21047;-67
2021/12/22 03:06:58;;;;;;;4.33;2.87;;;;;;;-4.48;76.76;96381.15;1607905;89;21501;-67
2021/12/22 03:09:27;;;;;;;5.47;2.70;;;;;;;-4.48;76.76;96378.98;1608230;89;21536;-67
2021/12/22 03:11:57;;;;;;;4.50;2.67;;;;;;;-4.54;77.09;96384.68;1608738;89;21086;-67
2021/12/22 03:14:26;;;;;;;5.70;3.60;;;;;;;-4.67;76.87;96387.43;1608684;89;21113;-67
2021/12/22 03:16:54;;;;;;;6.87;2.73;;;;;;;-4.69;77.30;96386.05;1608771;89;21074;-67
2021/12/22 03:19:26;;;;;;;3.60;2.23;;;;;;;-4.71;77.28;96378.67;1608539;88;21022;-67
2021/12/22 03:22:01;;;;;;;5.67;3.50;;;;;;;-4.62;77.04;96383.41;1608557;89;21647;-67
2021/12/22 03:24:23;;;;;;;3.80;3.03;;;;;;;-4.65;76.98;96378.11;1607905;89;21078;-67
2021/12/22 03:26:50;;;;;;;4.57;2.30;;;;;;;-4.67;76.97;96383.16;1608703;89;21117;-67
2021/12/22 03:29:18;;;;;;;4.60;2.90;;;;;;;-4.69;77.00;96389.03;1608821;89;21165;-67
2021/12/22 03:31:47;;;;;;;6.60;2.93;;;;;;;-4.71;77.15;96394.13;1608725;89;21043;-67
2021/12/22 03:34:14;;;;;;;5.47;3.00;;;;;;;-4.72;77.37;96396.61;1608667;89;21069;-67
2021/12/22 03:36:43;;;;;;;4.60;2.63;;;;;;;-4.72;77.78;96397.89;1608581;89;21003;-68
2021/12/22 03:39:11;;;;;;;6.07;3.37;;;;;;;-4.65;77.68;96405.14;1609101;89;21055;-67
2021/12/22 03:41:39;;;;;;;5.87;3.30;;;;;;;-4.66;77.45;96402.97;1608627;89;21576;-67
2021/12/22 03:44:06;;;;;;;5.50;3.33;;;;;;;-4.62;77.17;96405.30;1608639;89;21543;-68
2021/12/22 03:46:34;;;;;;;4.83;2.87;;;;;;;-4.62;77.05;96404.88;1608662;89;21051;-67
2021/12/22 03:49:00;;;;;;;4.50;2.67;;;;;;;-4.62;76.61;96398.86;1608777;89;21050;-67
2021/12/22 03:51:28;;;;;;;5.77;3.27;;;;;;;-4.66;76.51;96396.91;1608772;89;21039;-67
2021/12/22 03:53:55;;;;;;;4.80;3.03;;;;;;;-4.68;76.43;96398.55;1608553;89;21107;-67
2021/12/22 03:56:21;;;;;;;5.97;3.77;;;;;;;-4.74;76.29;96395.22;1608686;89;21560;-67
2021/12/22 03:58:49;;;;;;;6.47;3.50;;;;;;;-4.80;76.43;96403.52;1608704;89;21066;-67
2021/12/22 04:01:16;;;;;;;5.53;3.40;;;;;;;-4.79;76.54;96406.97;1608544;89;21111;-67
2021/12/22 04:03:45;;;;;;;6.00;3.60;;;;;;;-4.75;76.49;96415.77;1608650;89;21054;-67
2021/12/22 04:06:11;;;;;;;7.13;2.93;;;;;;;-4.81;76.44;96413.34;1608736;89;21047;-67
2021/12/22 04:08:38;;;;;;;4.23;2.50;;;;;;;-4.82;76.07;96416.70;1608517;89;21061;-67
2021/12/22 04:11:05;;;;;;;6.63;3.60;;;;;;;-4.90;75.75;96423.55;1608742;89;21031;-67
2021/12/22 04:13:31;;;;;;;4.90;3.40;;;;;;;-5.03;75.90;96429.73;1608444;89;21105;-67
2021/12/22 04:15:58;;;;;;;3.13;2.20;;;;;;;-5.17;76.61;96431.53;1608485;89;21030;-67
2021/12/22 04:18:25;;;;;;;4.53;2.73;;;;;;;-5.29;77.30;96439.48;1608630;89;21579;-66
2021/12/22 04:20:52;;;;;;;5.67;2.87;;;;;;;-5.31;77.14;96435.05;1582230;89;21059;-69
2021/12/22 04:23:18;;;;;;;3.90;2.43;;;;;;;-5.42;77.79;96435.72;1608075;89;21134;-70
2021/12/22 04:25:46;;;;;;;5.50;2.87;;;;;;;-5.43;77.37;96444.25;1608772;89;21064;-69
2021/12/22 04:28:13;;;;;;;7.10;3.77;;;;;;;-5.50;77.37;96447.27;1608748;89;21019;-67
2021/12/22 04:30:47;;;;;;;4.57;2.50;;;;;;;-5.57;77.34;96438.34;1608538;89;21513;-67
2021/12/22 04:33:14;;;;;;;;;;;;;;;-5.60;77.50;96451.00;1611138;89;21571;-67
2021/12/22 04:35:41;;;;;;;4.37;2.53;;;;;;;-5.61;77.34;96463.38;1578629;90;20113;-68
2021/12/22 04:38:08;;;;;;;4.40;2.70;;;;;;;-5.61;77.64;96462.50;1597442;90;21030;-67
2021/12/22 04:40:35;;;;;;;4.77;2.43;;;;;;;-5.57;77.89;96456.72;1597597;90;21090;-67
2021/12/22 04:43:02;;;;;;;4.17;2.13;;;;;;;-5.56;77.52;96455.94;1597291;90;21082;-68
2021/12/22 04:45:29;;;;;;;3.40;2.20;;;;;;;-5.59;77.62;96457.02;1597505;90;21130;-67
2021/12/22 04:47:57;;;;;;;4.20;2.93;;;;;;;-5.62;77.07;96453.00;1597458;90;21090;-67
2021/12/22 04:50:24;;;;;;;4.70;2.37;;;;;;;-5.63;78.03;96456.38;1597186;90;21152;-67
2021/12/22 04:53:04;;;;;;;3.87;1.80;;;;;;;-5.53;78.05;96465.11;1597378;90;21587;-67
2021/12/22 04:55:28;;;;;;;2.83;1.70;;;;;;;-5.47;77.71;96455.15;1597616;90;21090;-68
2021/12/22 04:57:58;;;;;;;3.73;2.20;;;;;;;-5.57;76.88;96458.00;1597264;90;21098;-68
2021/12/22 05:00:28;;;;;;;4.27;2.60;;;;;;;-5.55;77.05;96459.86;1597528;90;21583;-68
2021/12/22 05:02:56;;;;;;;4.33;2.70;;;;;;;-5.47;76.79;96462.86;1597509;90;21114;-68
2021/12/22 05:05:23;;;;;;;4.20;2.20;;;;;;;-5.43;76.88;96458.39;1597426;90;21078;-68
2021/12/22 05:07:50;;;;;;;4.40;2.40;;;;;;;-5.43;76.46;96453.25;1597453;90;21527;-68
2021/12/22 05:10:19;;;;;;;3.90;2.20;;;;;;;-5.45;77.02;96459.58;1597503;90;21178;-68
2021/12/22 05:12:46;;;;;;;7.03;3.63;;;;;;;-5.49;76.94;96455.08;1597347;90;21073;-68
2021/12/22 05:15:19;;;;;;;7.70;3.90;;;;;;;-5.49;77.40;96459.34;1597555;90;21042;-68
2021/12/22 05:20:13;;;;;;;5.07;2.80;;;;;;;-5.53;77.23;96454.41;1616975;89;21149;-68
2021/12/22 05:22:40;;;;;;;6.67;3.37;;;;;;;-5.56;77.43;96463.66;1617685;88;21543;-68
2021/12/22 05:25:10;;;;;;;6.97;3.53;;;;;;;-5.49;77.64;96461.92;1617683;88;21045;-68
2021/12/22 05:27:38;;;;;;;9.67;5.20;;;;;;;-5.45;76.76;96463.84;1617875;88;21065;-68
2021/12/22 05:30:09;;;;;;;9.07;4.00;;;;;;;-5.38;76.98;96467.66;1617737;89;21134;-68
2021/12/22 05:32:36;;;;;;;8.20;3.23;;;;;;;-5.29;76.64;96465.58;1617657;88;21555;-68
2021/12/22 05:35:07;;;;;;;7.50;3.70;;;;;;;-5.35;76.17;96470.39;1617811;89;21050;-68
2021/12/22 05:37:34;;;;;;;4.73;3.40;;;;;;;-5.43;76.09;96468.68;1617721;88;21053;-68
2021/12/22 05:40:01;;;;;;;11.60;5.53;;;;;;;-5.46;76.25;96474.94;1617553;88;21599;-68
2021/12/22 05:42:28;;;;;;;7.70;5.20;;;;;;;-5.40;76.65;96479.13;1617971;89;21034;-68
2021/12/22 05:44:55;;;;;;;6.10;3.13;;;;;;;-5.29;76.53;96475.49;1617879;88;21575;-68
2021/12/22 05:47:22;;;;;;;5.87;3.33;;;;;;;-5.30;75.98;96481.42;1617630;88;21074;-68
2021/12/22 05:49:49;;;;;;;4.43;2.60;;;;;;;-5.33;75.60;96491.95;1617569;89;21106;-68
2021/12/22 05:52:16;;;;;;;5.10;2.47;;;;;;;-5.38;75.71;96485.25;1617875;88;21030;-68
2021/12/22 05:54:45;;;;;;;4.90;2.77;;;;;;;-5.46;75.24;96483.53;1588997;89;21054;-67
2021/12/22 05:57:12;;;;;;;4.73;2.80;;;;;;;-5.47;75.74;96486.01;1617841;88;21070;-70
2021/12/22 05:59:38;;;;;;;4.70;2.23;;;;;;;-5.39;75.56;96487.73;1617770;88;21049;-68
2021/12/22 06:02:05;;;;;;;5.00;2.10;;;;;;;-5.29;75.37;96490.02;1617483;89;21158;-68
2021/12/22 06:04:31;;;;;;;4.97;2.33;;;;;;;-5.33;74.93;96488.97;1617820;88;21062;-68
2021/12/22 06:06:58;;;;;;;4.77;2.70;;;;;;;-5.29;75.05;96491.30;1617361;89;21122;-67
2021/12/22 06:09:25;;;;;;;3.87;2.57;;;;;;;-5.30;74.66;96492.99;1617618;88;21126;-69
2021/12/22 06:11:51;;;;;;;4.73;2.70;;;;;;;-5.39;74.84;96488.64;1617848;88;21094;-66
2021/12/22 06:14:18;;;;;;;14.07;7.30;;;;;;;-5.42;74.84;96497.44;1617417;89;21114;-67
2021/12/22 06:16:44;;;;;;;23.23;11.50;;;;;;;-5.42;75.31;96487.56;1617835;88;21074;-67
2021/12/22 06:19:12;;;;;;;40.07;16.67;;;;;;;-5.35;75.62;96486.70;1613405;88;21090;-67
2021/12/22 06:21:39;;;;;;;19.53;9.20;;;;;;;-5.27;75.62;96493.56;1624567;87;21002;-68
2021/12/22 06:24:08;;;;;;;28.10;14.97;;;;;;;-5.26;75.71;96494.95;1621440;87;21149;-65
2021/12/22 06:26:35;;;;;;;32.27;15.97;;;;;;;-5.31;75.58;96502.81;1622701;87;21096;-69
2021/12/22 06:29:01;;;;;;;24.90;11.63;;;;;;;-5.29;75.58;96502.50;1613877;87;21035;-67
2021/12/22 06:31:30;;;;;;;17.63;8.83;;;;;;;-5.17;75.59;96505.27;1616349;87;21129;-68
2021/12/22 06:33:57;;;;;;;14.83;8.00;;;;;;;-5.06;75.52;96508.05;1623252;87;21051;-67
2021/12/22 06:36:24;;;;;;;16.80;8.67;;;;;;;-5.05;74.97;96511.09;1626107;87;21058;-68
2021/12/22 06:38:51;;;;;;;27.27;12.23;;;;;;;-5.01;75.03;96511.36;1625030;87;21120;-68
2021/12/22 06:41:17;;;;;;;26.63;12.60;;;;;;;-5.02;74.45;96521.55;1620212;88;21050;-68
2021/12/22 06:43:46;;;;;;;23.67;12.80;;;;;;;-5.15;75.04;96521.27;1629383;88;21035;-66
2021/12/22 06:46:12;;;;;;;23.97;13.00;;;;;;;-5.15;74.88;96524.25;1629400;88;20991;-70
2021/12/22 06:48:39;;;;;;;16.03;8.37;;;;;;;-5.15;74.97;96526.83;1628691;88;21565;-67
2021/12/22 06:51:06;;;;;;;16.10;8.60;;;;;;;-5.16;74.71;96525.95;1582850;91;21103;-65
2021/12/22 06:53:36;;;;;;;24.80;11.17;;;;;;;-5.17;74.55;96531.87;1587592;90;21616;-68
2021/12/22 06:56:03;;;;;;;17.57;9.93;;;;;;;-5.07;75.02;96526.84;1587511;90;21102;-66
2021/12/22 06:58:29;;;;;;;12.47;6.63;;;;;;;-5.02;74.79;96539.57;1587849;90;21528;-68
2021/12/22 07:00:56;;;;;;;14.37;7.03;;;;;;;-5.05;74.10;96535.14;1587603;90;21042;-67
2021/12/22 07:03:23;;;;;;;12.17;6.50;;;;;;;-5.00;74.59;96536.28;1587816;90;21055;-68
2021/12/22 07:05:49;;;;;;;11.93;7.17;;;;;;;-4.93;73.87;96540.50;1586916;90;21133;-68
2021/12/22 07:08:16;;;;;;;10.70;7.00;;;;;;;-5.00;73.32;96542.72;1587238;90;21596;-66
2021/12/22 07:10:43;;;;;;;9.90;6.00;;;;;;;-5.13;73.06;96541.55;1587068;90;21118;-67
2021/12/22 07:13:12;;;;;;;10.00;5.27;;;;;;;-5.14;73.35;96537.59;1587386;90;21066;-69
2021/12/22 07:15:38;;;;;;;10.47;6.20;;;;;;;-5.19;73.41;96541.59;1587367;90;21078;-68
2021/12/22 07:18:08;;;;;;;12.73;6.60;;;;;;;-5.23;73.98;96544.00;1587100;90;21095;-64
2021/12/22 07:20:35;;;;;;;12.20;6.80;;;;;;;-5.23;74.00;96540.14;1593815;90;21066;-66
2021/12/22 07:23:02;;;;;;;10.97;6.37;;;;;;;-5.17;74.52;96548.59;1598184;90;21077;-65
2021/12/22 07:25:29;;;;;;;14.90;9.07;;;;;;;-5.02;74.45;96542.14;1624402;88;21090;-63
2021/12/22 07:27:55;;;;;;;18.13;9.60;;;;;;;-4.98;73.81;96545.80;1614272;88;21579;-66
2021/12/22 07:30:21;;;;;;;15.27;7.77;;;;;;;-4.90;73.61;96547.98;1614739;89;21027;-66
2021/12/22 07:32:48;;;;;;;34.47;17.93;;;;;;;-4.83;73.31;96551.38;1617623;89;21093;-67
2021/12/22 07:35:36;;;;;;;37.70;20.37;;;;;;;-4.70;72.87;96555.92;1617121;89;21120;-69
2021/12/22 07:38:32;;;;;;;27.60;16.47;;;;;;;-4.56;72.37;96557.58;1617495;89;21050;-67
2021/12/22 07:41:01;;;;;;;11.07;7.83;;;;;;;-4.36;72.20;96552.19;1610222;89;21050;-65
2021/12/22 07:43:30;;;;;;;18.87;13.03;;;;;;;-4.30;70.44;96556.81;1617732;88;21552;-64
2021/12/22 07:45:58;;;;;;;18.50;10.40;;;;;;;-4.37;69.42;96561.61;1617409;89;21086;-69
2021/12/22 07:48:25;;;;;;;21.17;12.10;;;;;;;-4.35;69.20;96560.02;1617185;89;21062;-67
2021/12/22 07:50:53;;;;;;;27.73;15.50;;;;;;;-4.27;69.67;96563.41;1616638;89;21161;-70
2021/12/22 07:53:20;;;;;;;26.67;15.27;;;;;;;-4.13;69.16;96565.04;1612937;89;21105;-68
2021/12/22 07:55:47;;;;;;;27.70;13.40;;;;;;;-4.08;68.85;96558.81;1617628;89;21062;-68
2021/12/22 07:58:14;;;;;;;21.27;12.77;;;;;;;-4.17;68.66;96557.94;1617474;89;21046;-69
2021/12/22 08:00:41;;;;;;;24.27;13.87;;;;;;;-4.26;68.87;96563.87;1616784;89;21010;-69
2021/12/22 08:03:08;;;;;;;25.57;14.43;;;;;;;-4.30;68.85;96561.55;1617438;89;21100;-68
2021/12/22 08:05:35;;;;;;;27.50;14.97;;;;;;;-4.30;69.29;96573.55;1617187;89;21540;-68
2021/12/22 08:08:01;;;;;;;34.37;17.87;;;;;;;-4.26;69.45;96572.89;1617262;89;21069;-69
2021/12/22 08:10:28;;;;;;;52.47;23.67;;;;;;;-4.25;68.65;96572.99;1617294;89;21140;-71
2021/12/22 08:12:55;;;;;;;49.13;24.67;;;;;;;-4.29;68.78;96574.91;1616850;89;21054;-67
2021/12/22 08:15:22;;;;;;;49.43;23.60;;;;;;;-4.12;69.33;96570.66;1614717;87;21081;-76
2021/12/22 08:17:48;;;;;;;34.40;17.10;;;;;;;-3.97;68.83;96573.17;1616805;88;21642;-69
2021/12/22 08:20:15;;;;;;;24.87;12.93;;;;;;;-3.89;67.48;96580.02;1619463;88;21140;-71
2021/12/22 08:22:42;;;;;;;29.27;15.67;;;;;;;-3.82;67.22;96575.67;1621818;88;21090;-68
2021/12/22 08:25:09;;;;;;;25.43;14.37;;;;;;;-3.74;66.70;96581.69;1620678;88;21152;-73
2021/12/22 08:27:36;;;;;;;25.53;14.63;;;;;;;-3.74;66.73;96584.68;1621828;88;21066;-66
2021/12/22 08:30:05;;;;;;;33.27;17.30;;;;;;;-3.58;66.89;96594.09;1622396;88;21126;-66
2021/12/22 08:32:32;;;;;;;38.37;23.67;;;;;;;-3.39;66.13;96592.94;1622280;88;21559;-66
2021/12/22 08:34:59;;;;;;;44.33;28.77;;;;;;;-3.29;65.93;96590.02;1622102;88;21010;-67
2021/12/22 08:40:14;;;;;;;33.27;20.67;;;;;;;-2.99;65.15;96596.23;1621986;88;21006;-70
2021/12/22 08:42:39;;;;;;;26.33;17.40;;;;;;;-2.83;63.98;96597.86;1622215;88;21081;-67
2021/12/22 08:45:07;;;;;;;26.67;14.43;;;;;;;-2.57;64.23;96603.39;1621688;88;21065;-67
2021/12/22 08:47:34;;;;;;;19.23;13.33;;;;;;;-2.43;61.93;96606.23;1622362;88;21126;-66
2021/12/22 08:50:01;;;;;;;20.10;12.47;;;;;;;-2.36;61.29;96595.38;1617503;88;21083;-66
2021/12/22 08:52:28;;;;;;;12.80;7.20;;;;;;;-2.39;59.07;96599.12;1606390;88;21083;-65
2021/12/22 08:54:54;;;;;;;26.23;12.20;;;;;;;-2.38;57.85;96596.13;1605936;89;21070;-68
2021/12/22 08:57:21;;;;;;;21.17;11.90;;;;;;;-2.51;57.21;96602.41;1604806;89;21178;-69
2021/12/22 08:59:48;;;;;;;25.13;11.93;;;;;;;-2.48;56.08;96596.97;1605927;89;21055;-68
2021/12/22 09:02:14;;;;;;;43.13;20.10;;;;;;;-2.40;55.23;96598.20;1581881;88;21042;-69
2021/12/22 09:04:40;;;;;;;34.57;17.53;;;;;;;-2.32;54.86;96598.98;1583109;91;21119;-66
2021/12/22 09:07:07;;;;;;;30.87;15.00;;;;;;;-2.20;55.07;96599.55;1601520;89;21035;-65
2021/12/22 09:09:34;;;;;;;22.57;12.57;;;;;;;-2.17;53.96;96597.11;1612746;89;21089;-66
2021/12/22 09:12:00;;;;;;;20.03;12.90;;;;;;;-2.20;52.92;96601.73;1592513;90;21058;-67
2021/12/22 09:14:27;;;;;;;13.97;10.17;;;;;;;-2.37;52.78;96601.34;1607952;89;21121;-68
2021/12/22 09:16:54;;;;;;;14.63;9.20;;;;;;;-2.51;53.86;96601.12;1612156;88;21590;-67
2021/12/22 09:19:23;;;;;;;15.70;8.90;;;;;;;-2.65;52.03;96605.61;1608355;88;21114;-68
2021/12/22 09:21:51;;;;;;;14.87;8.83;;;;;;;-2.61;50.03;96599.38;1607312;89;21106;-67
2021/12/22 09:24:19;;;;;;;14.03;8.23;;;;;;;-2.47;50.84;96605.59;1607312;89;21157;-67
2021/12/22 09:26:47;;;;;;;18.17;9.80;;;;;;;-2.48;47.66;96605.13;1608482;89;21079;-68
2021/12/22 09:29:13;;;;;;;12.77;7.17;;;;;;;-2.49;48.28;96605.95;1608498;89;21094;-67
2021/12/22 09:31:40;;;;;;;12.80;7.07;;;;;;;-2.60;47.55;96602.84;1608046;89;21213;-68
2021/12/22 09:34:08;;;;;;;14.60;7.80;;;;;;;-2.61;48.63;96604.55;1608096;89;21034;-68
2021/12/22 09:36:35;;;;;;;12.27;5.20;;;;;;;-2.54;48.16;96610.02;1608388;89;21098;-66
2021/12/22 09:39:03;;;;;;;9.80;6.07;;;;;;;-2.46;46.42;96608.68;1608390;89;21154;-67
2021/12/22 09:41:31;;;;;;;10.93;5.27;;;;;;;-2.27;47.20;96602.66;1586722;89;21054;-65
2021/12/22 09:43:59;;;;;;;17.17;7.33;;;;;;;-1.98;46.94;96601.44;1598532;89;21572;-63
2021/12/22 09:46:26;;;;;;;14.83;8.27;;;;;;;-1.55;46.59;96594.30;1591077;89;21149;-65
2021/12/22 09:49:00;;;;;;;17.90;9.27;;;;;;;-1.10;45.14;96586.74;1592794;89;21067;-65
2021/12/22 09:53:52;;;;;;;11.67;8.00;;;;;;;-0.49;43.43;96581.47;1580243;90;21631;-66
2021/12/22 09:56:33;;;;;;;11.83;7.57;;;;;;;-0.25;43.94;96576.38;1579564;90;21030;-65
2021/12/22 09:58:55;;;;;;;9.77;5.93;;;;;;;0.05;43.11;96572.27;1581261;90;21094;-67
2021/12/22 10:01:25;;;;;;;9.47;6.07;;;;;;;0.15;39.43;96568.80;1580034;90;21530;-66
2021/12/22 10:03:57;;;;;;;9.60;4.70;;;;;;;0.50;39.07;96561.81;1582285;90;21499;-66
2021/12/22 10:06:26;;;;;;;12.13;7.07;;;;;;;0.94;38.90;96565.97;1578624;90;21085;-65
2021/12/22 10:09:03;;;;;;;7.63;4.97;;;;;;;1.32;36.79;96559.86;1624176;87;21059;-64
2021/12/22 10:11:32;;;;;;;9.70;5.73;;;;;;;1.56;35.09;96566.25;1614135;87;20998;-64
2021/12/22 10:13:59;;;;;;;9.77;6.27;;;;;;;1.81;37.67;96566.59;1617845;87;21559;-64
2021/12/22 10:16:29;;;;;;;13.63;6.43;;;;;;;2.06;35.53;96565.62;1618592;87;20987;-65
2021/12/22 10:19:07;;;;;;;14.57;8.23;;;;;;;2.13;34.29;96564.09;1598476;87;21616;-65
2021/12/22 10:21:36;;;;;;;16.40;7.67;;;;;;;2.35;35.35;96570.81;1634665;87;21077;-65
2021/12/22 10:24:06;;;;;;;6.83;5.00;;;;;;;2.55;32.17;96567.05;1620250;88;21066;-65
2021/12/22 10:26:33;;;;;;;6.80;4.30;;;;;;;2.62;33.15;96569.42;1624615;88;21076;-65
2021/12/22 10:29:05;;;;;;;11.50;6.63;;;;;;;2.62;32.61;96563.30;1624788;88;21515;-65
2021/12/22 10:31:45;;;;;;;8.17;5.30;;;;;;;2.70;32.92;96569.63;1624651;88;21604;-65
2021/12/22 10:34:18;;;;;;;7.60;4.83;;;;;;;2.81;32.72;96563.84;1624715;88;21006;-64
2021/12/22 10:36:54;;;;;;;6.00;4.17;;;;;;;2.70;31.72;96562.69;1625737;88;21085;-64
2021/12/22 10:39:25;;;;;;;6.93;4.63;;;;;;;2.57;31.35;96564.08;1625683;88;21033;-67
2021/12/22 10:41:53;;;;;;;4.27;3.40;;;;;;;2.45;30.32;96561.13;1625306;88;21109;-63
2021/12/22 10:44:20;;;;;;;6.00;3.67;;;;;;;2.60;31.73;96557.64;1625512;88;21006;-63
2021/12/22 10:46:47;;;;;;;3.70;2.43;;;;;;;2.98;31.22;96551.27;1625521;88;21066;-63
2021/12/22 10:49:20;;;;;;;4.97;2.90;;;;;;;3.34;30.01;96548.25;1600100;88;21082;-64
2021/12/22 10:52:03;;;;;;;3.30;2.33;;;;;;;3.52;28.79;96549.98;1624901;88;22282;-65
2021/12/22 10:54:34;;;;;;;4.27;2.13;;;;;;;3.28;27.67;96542.47;1624629;88;21065;-67
2021/12/22 10:57:05;;;;;;;5.33;4.47;;;;;;;3.60;28.52;96544.95;1624797;88;21612;-65
2021/12/22 10:59:53;;;;;;;3.37;2.30;;;;;;;3.57;27.60;96542.27;1624181;88;21061;-64
2021/12/22 11:02:24;;;;;;;4.73;2.80;;;;;;;3.52;27.72;96546.50;1624935;88;21137;-64
2021/12/22 11:04:50;;;;;;;4.30;2.50;;;;;;;3.57;27.26;96548.80;1624725;88;21057;-65
2021/12/22 11:07:26;;;;;;;3.80;2.40;;;;;;;3.30;28.22;96549.00;1624923;88;21026;-64
2021/12/22 11:09:52;;;;;;;2.83;2.27;;;;;;;3.39;29.89;96550.12;1625037;88;21092;-64
2021/12/22 11:12:37;;;;;;;4.20;2.53;;;;;;;3.37;29.81;96547.89;1625467;88;21065;-64
2021/12/22 11:15:06;;;;;;;4.97;3.23;;;;;;;3.40;30.26;96549.69;1625570;88;21539;-64
2021/12/22 11:17:37;;;;;;;7.73;5.23;;;;;;;3.35;29.80;96549.61;1600145;88;21580;-63
2021/12/22 11:20:06;;;;;;;4.90;3.10;;;;;;;3.14;31.60;96546.02;1622486;88;21094;-63
2021/12/22 11:22:54;;;;;;;4.83;3.27;;;;;;;3.49;31.29;96545.13;1610026;88;21560;-63
2021/12/22 11:25:21;;;;;;;4.10;2.80;;;;;;;3.44;30.83;96545.02;1609976;89;21092;-63
2021/12/22 11:27:50;;;;;;;3.97;2.57;;;;;;;3.56;32.15;96541.40;1610015;89;21541;-63
2021/12/22 11:30:17;;;;;;;5.93;4.03;;;;;;;3.68;31.53;96534.30;1610003;88;21078;-63
2021/12/22 11:32:44;;;;;;;7.70;3.77;;;;;;;3.57;32.28;96539.66;1609820;88;21062;-63
2021/12/22 11:35:14;;;;;;;4.93;3.40;;;;;;;3.72;31.62;96536.53;1610335;88;21078;-63
2021/12/22 11:37:41;;;;;;;7.23;4.20;;;;;;;3.75;31.21;96538.78;1610011;89;21065;-63
2021/12/22 11:40:10;;;;;;;6.43;3.50;;;;;;;3.53;32.23;96537.81;1610040;89;21104;-64
2021/12/22 11:42:39;;;;;;;6.33;3.90;;;;;;;2.91;33.06;96537.61;1610020;88;21065;-64
2021/12/22 11:45:11;;;;;;;6.73;3.30;;;;;;;2.75;34.23;96541.97;1609976;88;21041;-64
2021/12/22 11:47:43;;;;;;;7.30;4.30;;;;;;;2.44;34.42;96545.44;1610080;89;21114;-64
2021/12/22 11:50:20;;;;;;;3.63;2.87;;;;;;;2.10;35.68;96544.05;1608950;89;21070;-64
2021/12/22 11:53:06;;;;;;;6.67;4.10;;;;;;;1.75;35.59;96543.00;1609629;89;21059;-64
2021/12/22 11:55:48;;;;;;;6.50;4.10;;;;;;;1.77;36.88;96544.36;1609945;89;21050;-64